HS Bizet — A8MI3 — position and weather

sailwx.info

Track history (hours):
 
Tides and Currents Weather Stations Pressure Air Temp Water Temp Dewpoint Dewpoint Depression Visibility Wind Speed Wind Dir Waves Ship Positions

HS Bizet

Last reported at 2014-Nov-22 17:34 UTC. Time now 2014-Nov-23 00:48 UTC.
Position S 34°02' E 152°46'.

Length 246 m; draft 10.1 m.

Type: Ship (hazmat cat A). MMSI: 636091349.

Date/timePositionNaut miles runAvg speedWind from/ knotsBaromVisibWave heightAir tempDewpointWater temp
2014-Nov-22 17:34S 34°02' E 152°46'2019.7
2014-Nov-22 16:33S 34°03' E 152°22'3919.6
2014-Nov-22 14:33S 34°03' E 151°35'1817.1
2014-Nov-22 13:31S 34°00' E 151°14'3 0.1
2014-Nov-20 19:30S 34°02' E 151°17'1414.9
2014-Nov-20 18:33S 34°16' E 151°14'2020.4
2014-Nov-20 17:33S 34°36' E 151°07'2120.6
2014-Nov-20 16:33S 34°56' E 151°01'2019.8
2014-Nov-20 15:33S 35°15' E 150°54'2020.0
2014-Nov-20 14:33S 35°34' E 150°48'2019.9
2014-Nov-20 13:33S 35°53' E 150°42'2019.6
2014-Nov-20 12:33S 36°12' E 150°36'6319.7
2014-Nov-20 09:22S 37°13' E 150°16'2020.3
2014-Nov-20 08:24S 37°32' E 150°09'3820.3
2014-Nov-20 06:33S 37°56' E 149°33'2020.0
2014-Nov-20 05:33S 38°09' E 149°13'2020.0
2014-Nov-20 04:33S 38°22' E 148°54'2019.8
2014-Nov-20 03:33S 38°35' E 148°34'2619.6
2014-Nov-20 02:15S 38°50' E 148°08'1420.3
2014-Nov-20 01:33S 38°54' E 147°51'2120.6
2014-Nov-20 00:34S 39°01' E 147°26'2120.5
2014-Nov-19 23:33S 39°08' E 147°01'2020.3
2014-Nov-19 22:33S 39°16' E 146°37'5919.5
2014-Nov-19 19:33S 38°53' E 145°27'1817.7
2014-Nov-19 18:33S 38°44' E 145°08'1817.6
2014-Nov-19 17:33S 38°33' E 144°50'  
Track history (hours):
 
Tides and Currents Weather Stations Pressure Air Temp Water Temp Dewpoint Dewpoint Depression Visibility Wind Speed Wind Dir Waves Ship Positions

HS Bizet

Last reported at 2014-Nov-22 17:34 UTC. Time now 2014-Nov-23 00:48 UTC.
Position S 34°02' E 152°46'.

Length 246 m; draft 10.1 m.

Type: Ship (hazmat cat A). MMSI: 636091349.

Date/timePositionNaut miles runAvg speedWind from/ knotsBaromVisibWave heightAir tempDewpointWater temp
2014-Nov-22 17:34S 34°02' E 152°46'2019.7
2014-Nov-22 16:33S 34°03' E 152°22'3919.6
2014-Nov-22 14:33S 34°03' E 151°35'1817.1
2014-Nov-22 13:31S 34°00' E 151°14'3 0.1
2014-Nov-20 19:30S 34°02' E 151°17'1414.9
2014-Nov-20 18:33S 34°16' E 151°14'2020.4
2014-Nov-20 17:33S 34°36' E 151°07'2120.6
2014-Nov-20 16:33S 34°56' E 151°01'2019.8
2014-Nov-20 15:33S 35°15' E 150°54'2020.0
2014-Nov-20 14:33S 35°34' E 150°48'2019.9
2014-Nov-20 13:33S 35°53' E 150°42'2019.6
2014-Nov-20 12:33S 36°12' E 150°36'6319.7
2014-Nov-20 09:22S 37°13' E 150°16'2020.3
2014-Nov-20 08:24S 37°32' E 150°09'3820.3
2014-Nov-20 06:33S 37°56' E 149°33'2020.0
2014-Nov-20 05:33S 38°09' E 149°13'2020.0
2014-Nov-20 04:33S 38°22' E 148°54'2019.8
2014-Nov-20 03:33S 38°35' E 148°34'2619.6
2014-Nov-20 02:15S 38°50' E 148°08'1420.3
2014-Nov-20 01:33S 38°54' E 147°51'2120.6
2014-Nov-20 00:34S 39°01' E 147°26'2120.5
2014-Nov-19 23:33S 39°08' E 147°01'2020.3
2014-Nov-19 22:33S 39°16' E 146°37'5919.5
2014-Nov-19 19:33S 38°53' E 145°27'1817.7
2014-Nov-19 18:33S 38°44' E 145°08'1817.6
2014-Nov-19 17:33S 38°33' E 144°50'  

Dump ship's entire track history